Time;durP1;ratioP1;P1;durP2;ratioP2;P2;SDS_P1;SDS_P2;PMS_P1;PMS_P2;Temp;Humidity;BMP_temperature;BMP_pressure;BME280_temperature;BME280_humidity;BME280_pressure;Samples;Min_cycle;Max_cycle;Signal;HPM_P1;HPM_P2
2023/09/29 00:00:57;;;;;;;17.50;11.50;;;;;;;12.63;100.00;99650.09;273682;1269;129115;-82
2023/09/29 00:07:39;;;;;;;15.20;12.30;;;;;;;12.55;100.00;99647.61;273890;1275;23297;-81
2023/09/29 00:13:41;;;;;;;17.50;11.30;;;;;;;12.50;100.00;99646.61;273975;1269;22162;-81
2023/09/29 00:19:44;;;;;;;17.90;11.20;;;;;;;12.44;100.00;99646.92;273623;1259;22349;-82
2023/09/29 00:26:27;;;;;;;21.00;13.20;;;;;;;12.36;100.00;99646.04;273858;1270;22288;-82
2023/09/29 00:32:29;;;;;;;21.40;10.50;;;;;;;12.25;100.00;99638.98;270691;1267;22521;-83
2023/09/29 00:38:34;;;;;;;20.30;11.30;;;;;;;12.17;100.00;99638.29;272570;1269;22340;-82
2023/09/29 00:44:36;;;;;;;18.00;11.20;;;;;;;12.15;100.00;99634.89;271224;1252;22924;-82
2023/09/29 00:51:21;;;;;;;19.70;12.50;;;;;;;12.09;100.00;99633.93;271035;1267;22260;-83
2023/09/29 00:58:17;;;;;;;20.00;11.50;;;;;;;11.98;100.00;99633.84;273767;1269;23620;-83
2023/09/29 01:05:19;;;;;;;15.10;11.10;;;;;;;11.90;100.00;99632.15;273938;1267;22346;-82
2023/09/29 01:11:21;;;;;;;22.40;12.50;;;;;;;11.81;100.00;99633.96;273906;1271;23275;-83
2023/09/29 01:18:06;;;;;;;16.90;11.70;;;;;;;11.72;100.00;99630.30;273651;1269;22747;-83
2023/09/29 01:24:07;;;;;;;21.20;12.60;;;;;;;11.68;100.00;99630.46;274054;1270;22951;-83
2023/09/29 01:30:13;;;;;;;18.30;12.10;;;;;;;11.64;100.00;99635.40;273786;1269;23545;-83
2023/09/29 01:36:15;;;;;;;21.30;11.50;;;;;;;11.62;100.00;99637.15;273937;1268;22125;-83
2023/09/29 01:42:16;;;;;;;16.70;10.90;;;;;;;11.56;100.00;99644.80;273320;1267;22634;-83
2023/09/29 01:48:38;;;;;;;15.50;10.30;;;;;;;11.51;100.00;99651.44;270604;1261;22524;-83
2023/09/29 01:54:40;;;;;;;16.90;11.20;;;;;;;11.48;100.00;99653.27;271605;1269;22523;-84
2023/09/29 02:00:42;;;;;;;17.60;10.50;;;;;;;11.39;100.00;99646.60;273854;1264;22392;-83
2023/09/29 02:06:43;;;;;;;14.40;8.90;;;;;;;11.22;100.00;99650.05;272566;1269;22617;-83
2023/09/29 02:12:59;;;;;;;14.00;10.80;;;;;;;11.09;100.00;99656.87;270293;1269;22531;-83
2023/09/29 02:19:42;;;;;;;15.80;10.40;;;;;;;11.06;100.00;99661.09;274079;1270;23385;-83
2023/09/29 02:26:05;;;;;;;15.10;10.20;;;;;;;10.96;100.00;99658.09;273732;1269;22207;-83
2023/09/29 02:32:21;;;;;;;14.50;10.70;;;;;;;10.88;100.00;99660.98;273736;1268;22241;-83
2023/09/29 02:38:49;;;;;;;14.00;9.70;;;;;;;10.95;100.00;99658.94;273998;1270;23859;-83
2023/09/29 02:45:33;;;;;;;16.30;10.50;;;;;;;10.94;100.00;99653.65;273706;1269;22302;-83
2023/09/29 02:52:04;;;;;;;16.60;10.30;;;;;;;10.97;100.00;99658.10;272775;1268;23974;-83
2023/09/29 02:58:46;;;;;;;16.50;10.20;;;;;;;10.95;100.00;99655.25;271475;1269;22218;-84
2023/09/29 03:13:43;;;;;;;15.20;9.00;;;;;;;10.80;100.00;99650.78;273920;1269;22369;-83
2023/09/29 03:35:04;;;;;;;11.10;8.20;;;;;;;10.61;100.00;99633.73;273955;1269;22210;-83
2023/09/29 03:42:20;;;;;;;13.40;9.50;;;;;;;10.57;100.00;99636.62;274012;1267;22413;-83
2023/09/29 03:49:25;;;;;;;15.70;9.80;;;;;;;10.47;100.00;99633.89;273854;1269;23270;-83
2023/09/29 03:56:34;;;;;;;19.90;9.30;;;;;;;10.42;100.00;99626.35;273629;1269;22898;-83
2023/09/29 04:02:36;;;;;;;12.90;9.70;;;;;;;10.34;100.00;99624.70;273951;1269;23358;-83
2023/09/29 04:09:28;;;;;;;17.10;10.10;;;;;;;10.26;100.00;99624.45;273992;1269;22190;-83
2023/09/29 04:15:55;;;;;;;15.00;8.30;;;;;;;10.21;100.00;99620.98;274002;1269;22217;-83
2023/09/29 04:22:35;;;;;;;12.40;9.50;;;;;;;10.17;100.00;99615.65;273855;1269;22180;-83
2023/09/29 04:30:13;;;;;;;12.10;9.20;;;;;;;10.16;100.00;99615.40;273879;1269;22213;-83
2023/09/29 04:36:37;;;;;;;14.40;8.60;;;;;;;10.17;100.00;99618.22;273465;1269;22234;-83
2023/09/29 04:42:39;;;;;;;16.70;10.20;;;;;;;10.13;100.00;99620.48;271677;1269;23522;-83
2023/09/29 04:48:58;;;;;;;12.00;8.90;;;;;;;10.07;100.00;99621.96;271711;1269;22441;-83
2023/09/29 04:55:00;;;;;;;16.20;9.80;;;;;;;10.01;100.00;99622.05;272033;1263;22542;-84
2023/09/29 05:01:03;;;;;;;15.00;11.30;;;;;;;10.01;100.00;99624.38;272088;1269;22912;-86
2023/09/29 05:07:54;;;;;;;13.40;9.50;;;;;;;10.04;100.00;99619.07;273562;1265;22557;-83
2023/09/29 05:14:30;;;;;;;14.20;9.90;;;;;;;10.11;100.00;99618.00;271829;1269;22201;-82
2023/09/29 05:20:32;;;;;;;15.10;11.00;;;;;;;10.18;100.00;99623.33;270510;1269;22223;-83
2023/09/29 05:26:34;;;;;;;16.90;10.50;;;;;;;10.26;100.00;99624.31;272760;1270;23659;-83
2023/09/29 05:32:36;;;;;;;12.40;9.20;;;;;;;10.39;100.00;99626.29;271480;1268;22358;-83
2023/09/29 05:38:45;;;;;;;14.60;10.90;;;;;;;10.53;100.00;99630.67;271233;1269;22541;-82
2023/09/29 05:45:28;;;;;;;13.30;10.50;;;;;;;10.77;100.00;99636.25;273156;1272;22577;-83
2023/09/29 05:52:11;;;;;;;13.90;10.00;;;;;;;11.25;100.00;99640.08;273483;1269;22418;-83
2023/09/29 05:59:14;;;;;;;20.90;11.10;;;;;;;11.79;100.00;99640.90;273912;1275;23303;-83
2023/09/29 06:05:17;;;;;;;18.20;12.30;;;;;;;12.30;100.00;99639.42;272162;1269;22541;-82
2023/09/29 06:11:20;;;;;;;20.70;12.90;;;;;;;12.82;100.00;99643.02;270880;1269;22645;-83
2023/09/29 06:17:22;;;;;;;16.10;11.30;;;;;;;13.24;100.00;99641.26;271919;1268;22630;-83
2023/09/29 06:23:24;;;;;;;38.30;20.90;;;;;;;13.58;100.00;99644.83;272931;1269;22566;-84
2023/09/29 06:29:53;;;;;;;25.40;15.70;;;;;;;13.86;100.00;99645.15;271712;1269;22413;-83
2023/09/29 06:35:55;;;;;;;23.80;14.30;;;;;;;13.99;100.00;99647.06;272314;1269;22203;-83
2023/09/29 06:41:57;;;;;;;30.70;15.40;;;;;;;14.08;100.00;99649.25;271413;1268;22750;-83
2023/09/29 06:47:59;;;;;;;22.20;12.60;;;;;;;14.15;100.00;99651.45;271374;1268;22578;-83
2023/09/29 06:54:02;;;;;;;17.60;12.70;;;;;;;14.23;100.00;99656.14;271265;1269;22523;-84
2023/09/29 07:00:07;;;;;;;20.80;12.90;;;;;;;14.34;100.00;99661.50;270234;1269;23818;-83
2023/09/29 07:06:49;;;;;;;22.60;12.30;;;;;;;14.51;100.00;99661.30;273703;1269;22179;-83
2023/09/29 07:13:16;;;;;;;14.60;11.20;;;;;;;14.73;100.00;99665.84;273889;1268;23210;-83
2023/09/29 07:19:17;;;;;;;19.20;10.90;;;;;;;14.97;100.00;99667.91;273680;1269;22380;-82
2023/09/29 07:25:19;;;;;;;21.50;12.10;;;;;;;15.25;100.00;99668.80;273678;1260;22395;-84
2023/09/29 07:31:21;;;;;;;18.30;11.00;;;;;;;15.58;100.00;99668.66;273833;1270;22369;-82
2023/09/29 07:37:23;;;;;;;14.70;10.70;;;;;;;15.99;100.00;99673.42;273761;1269;22350;-82
2023/09/29 07:43:43;;;;;;;18.80;10.70;;;;;;;16.43;100.00;99671.37;273791;1269;22225;-82
2023/09/29 07:50:40;;;;;;;17.70;11.00;;;;;;;16.92;100.00;99668.48;273821;1272;23289;-83
2023/09/29 07:57:20;;;;;;;17.30;10.50;;;;;;;17.47;100.00;99668.70;273655;1269;22284;-83
2023/09/29 08:03:42;;;;;;;18.00;9.30;;;;;;;17.92;100.00;99670.70;273867;1269;23586;-83
2023/09/29 08:10:11;;;;;;;19.00;8.90;;;;;;;18.37;100.00;99669.85;273910;1265;22127;-83
2023/09/29 08:16:15;;;;;;;19.60;8.60;;;;;;;18.79;100.00;99671.56;272629;1269;22390;-83
2023/09/29 08:22:43;;;;;;;12.10;8.00;;;;;;;19.10;100.00;99672.06;273957;1256;22154;-83
2023/09/29 08:29:31;;;;;;;14.70;8.40;;;;;;;19.44;100.00;99675.77;273895;1273;22221;-83
2023/09/29 08:36:19;;;;;;;12.10;7.70;;;;;;;20.06;100.00;99677.21;273790;1269;22187;-83
2023/09/29 08:43:12;;;;;;;10.60;7.20;;;;;;;20.87;100.00;99676.95;273835;1270;22253;-83
2023/09/29 08:50:03;;;;;;;12.50;8.10;;;;;;;22.01;100.00;99674.73;273619;1269;22286;-81
2023/09/29 08:56:51;;;;;;;18.60;9.60;;;;;;;22.98;100.00;99672.09;273448;1269;22194;-82
2023/09/29 09:03:34;;;;;;;18.00;7.90;;;;;;;24.01;99.25;99672.41;273597;1269;23369;-81
2023/09/29 09:09:36;;;;;;;11.60;6.50;;;;;;;24.77;97.12;99673.05;273535;1269;23449;-82
2023/09/29 09:15:40;;;;;;;13.30;6.70;;;;;;;25.47;93.69;99669.48;272476;1269;23399;-82
2023/09/29 09:22:24;;;;;;;9.30;6.20;;;;;;;26.32;91.49;99670.79;272198;1269;22179;-82
2023/09/29 09:29:40;;;;;;;11.40;5.30;;;;;;;27.04;89.05;99665.89;273647;1269;23671;-82
2023/09/29 09:35:45;;;;;;;12.50;5.60;;;;;;;27.84;85.22;99660.05;273747;1269;22224;-82
2023/09/29 09:41:58;;;;;;;12.40;5.60;;;;;;;28.51;82.41;99660.86;273893;1269;22330;-82
2023/09/29 09:48:40;;;;;;;11.50;5.30;;;;;;;29.26;80.73;99663.23;273907;1269;22205;-82
2023/09/29 09:55:30;;;;;;;9.40;5.50;;;;;;;29.89;75.93;99657.84;273909;1272;22188;-83
2023/09/29 10:01:33;;;;;;;11.60;5.20;;;;;;;30.17;72.61;99651.55;273826;1267;22167;-82
2023/09/29 10:07:44;;;;;;;8.50;4.80;;;;;;;30.33;70.52;99650.17;273706;1269;23321;-82
2023/09/29 10:13:48;;;;;;;7.20;5.10;;;;;;;30.41;68.43;99647.45;273740;1269;23741;-83
2023/09/29 10:21:09;;;;;;;8.60;4.80;;;;;;;30.72;64.88;99645.02;273998;1269;22190;-82
2023/09/29 10:27:34;;;;;;;;;;;;;;;30.93;61.98;99639.30;273866;1269;22392;-83
2023/09/29 10:33:56;;;;;;;5.40;4.30;;;;;;;30.85;60.90;99635.50;273712;1269;23673;-82
2023/09/29 10:40:38;;;;;;;9.90;4.40;;;;;;;30.76;59.13;99632.52;273724;1269;22410;-82
2023/09/29 10:47:16;;;;;;;7.10;4.50;;;;;;;30.62;57.30;99624.13;272865;1269;22537;-83
2023/09/29 10:53:37;;;;;;;9.70;4.50;;;;;;;30.33;56.93;99617.09;271757;1269;23228;-82
2023/09/29 10:59:49;;;;;;;7.80;5.00;;;;;;;30.05;56.25;99613.52;270745;1270;22572;-82
2023/09/29 11:06:37;;;;;;;5.70;4.20;;;;;;;29.58;55.34;99606.46;270527;1266;22685;-83
2023/09/29 11:13:19;;;;;;;5.50;4.30;;;;;;;29.18;53.68;99598.08;273864;1269;22909;-83
2023/09/29 11:19:51;;;;;;;6.20;3.90;;;;;;;28.77;52.56;99587.91;273972;1275;22841;-82
2023/09/29 11:26:10;;;;;;;7.50;4.20;;;;;;;28.32;51.43;99581.66;273833;1269;22230;-83
2023/09/29 11:32:12;;;;;;;5.20;4.00;;;;;;;27.68;50.91;99572.77;273669;1269;22139;-84
2023/09/29 11:38:22;;;;;;;10.40;4.60;;;;;;;27.15;51.33;99561.19;272094;1270;22608;-83
2023/09/29 11:52:14;;;;;;;9.50;4.80;;;;;;;26.68;47.51;99551.42;273694;1270;22377;-82
2023/09/29 11:58:16;;;;;;;9.20;5.00;;;;;;;26.43;47.25;99541.39;269670;1269;5529270;-84
2023/09/29 12:04:19;;;;;;;7.40;4.60;;;;;;;26.27;47.00;99536.30;273812;1269;23752;-83
2023/09/29 12:10:42;;;;;;;8.70;4.90;;;;;;;26.08;47.34;99530.06;273973;1275;23478;-83
2023/09/29 12:17:35;;;;;;;6.80;4.50;;;;;;;25.97;46.98;99525.73;273814;1269;22259;-83
2023/09/29 12:24:17;;;;;;;9.00;4.60;;;;;;;25.83;47.46;99521.13;273912;1273;22185;-82
2023/09/29 12:30:28;;;;;;;5.40;4.20;;;;;;;25.64;48.90;99515.52;273072;1266;23393;-82
2023/09/29 12:36:30;;;;;;;5.30;4.00;;;;;;;25.44;48.84;99508.75;270364;1269;22512;-83
2023/09/29 12:42:53;;;;;;;5.70;3.70;;;;;;;25.22;48.22;99506.60;270699;1269;22195;-83
2023/09/29 12:48:55;;;;;;;8.20;4.20;;;;;;;25.14;47.58;99498.35;272834;1269;26191;-83
2023/09/29 12:54:57;;;;;;;8.20;4.10;;;;;;;24.99;48.45;99493.73;272254;1270;22391;-84
2023/09/29 13:01:19;;;;;;;6.60;4.50;;;;;;;25.00;48.11;99487.37;270563;1269;25494;-84
2023/09/29 13:07:22;;;;;;;7.00;4.00;;;;;;;25.00;47.71;99481.92;270981;1269;22711;-83
2023/09/29 13:14:06;;;;;;;4.90;4.30;;;;;;;24.90;48.89;99475.31;272020;1269;23144;-84
2023/09/29 13:21:19;;;;;;;8.30;4.60;;;;;;;24.71;49.44;99466.66;273577;1269;22240;-84
2023/09/29 13:27:49;;;;;;;6.40;4.40;;;;;;;24.60;49.07;99458.92;273677;1271;22217;-84
2023/09/29 13:34:03;;;;;;;5.90;4.20;;;;;;;24.49;49.19;99454.61;273940;1269;22250;-83
2023/09/29 13:40:06;;;;;;;8.90;4.30;;;;;;;24.46;49.02;99450.34;273688;1269;22595;-84
2023/09/29 13:46:46;;;;;;;8.50;4.30;;;;;;;24.37;49.17;99446.35;273817;1272;22275;-83
2023/09/29 13:53:08;;;;;;;9.50;5.20;;;;;;;24.22;49.92;99440.78;273836;1276;22237;-83
2023/09/29 13:59:31;;;;;;;7.10;4.20;;;;;;;24.20;49.66;99437.06;273929;1273;22711;-83
2023/09/29 14:05:39;;;;;;;7.00;4.30;;;;;;;24.19;49.91;99431.45;273922;1276;23234;-83
2023/09/29 14:12:19;;;;;;;7.20;4.10;;;;;;;24.01;50.32;99429.64;273833;1269;22176;-84
2023/09/29 14:19:11;;;;;;;7.30;4.40;;;;;;;23.91;50.92;99421.28;273869;1269;22185;-83
2023/09/29 14:25:12;;;;;;;4.90;4.30;;;;;;;23.69;51.88;99422.38;273853;1272;22162;-84
2023/09/29 14:31:14;;;;;;;7.70;4.70;;;;;;;23.51;52.61;99415.09;273686;1269;22424;-84
2023/09/29 14:38:06;;;;;;;8.50;4.90;;;;;;;23.47;53.00;99413.90;273907;1270;22186;-83
2023/09/29 14:44:49;;;;;;;6.40;4.50;;;;;;;23.33;53.33;99409.36;273954;1275;22203;-83
2023/09/29 14:51:31;;;;;;;13.30;4.70;;;;;;;23.22;53.63;99403.52;273837;1272;22167;-84
2023/09/29 14:58:54;;;;;;;8.30;4.70;;;;;;;23.14;54.21;99401.42;273732;1271;22324;-83
2023/09/29 15:05:36;;;;;;;7.30;4.70;;;;;;;23.01;54.87;99393.46;273596;1270;22413;-84
2023/09/29 15:11:53;;;;;;;8.70;4.60;;;;;;;22.94;55.33;99393.15;273778;1273;22174;-84
2023/09/29 15:18:20;;;;;;;7.40;4.70;;;;;;;22.85;55.86;99395.59;273864;1270;22242;-84
2023/09/29 15:24:47;;;;;;;;;;;;;;;22.74;56.59;99398.25;273887;1270;22499;-84
2023/09/29 15:30:49;;;;;;;7.80;4.80;;;;;;;22.60;57.33;99398.84;270785;1269;22565;-85
2023/09/29 15:36:51;;;;;;;7.80;4.70;;;;;;;22.44;58.14;99399.00;271512;1269;22541;-84
2023/09/29 15:42:53;;;;;;;7.80;5.60;;;;;;;22.30;59.44;99396.81;270658;1270;23934;-83
2023/09/29 15:48:55;;;;;;;9.80;6.40;;;;;;;22.11;61.52;99393.39;270564;1270;22543;-84
2023/09/29 15:54:57;;;;;;;11.10;6.50;;;;;;;21.87;64.19;99402.02;271976;1270;22371;-84
2023/09/29 16:01:00;;;;;;;11.80;7.40;;;;;;;21.57;65.12;99402.02;270475;1269;24286;-83
2023/09/29 16:07:04;;;;;;;17.40;7.40;;;;;;;21.28;66.37;99403.52;269842;1258;23367;-84
2023/09/29 16:13:49;;;;;;;16.90;7.00;;;;;;;21.00;66.73;99400.94;270411;1263;25259;-84
2023/09/29 16:20:00;;;;;;;19.70;7.60;;;;;;;20.76;68.19;99402.17;271008;1270;22191;-84
2023/09/29 16:26:03;;;;;;;14.80;8.00;;;;;;;20.46;69.16;99407.76;273843;1254;23211;-84
2023/09/29 16:32:29;;;;;;;17.00;7.90;;;;;;;20.16;69.72;99410.55;273965;1269;22247;-83
2023/09/29 16:39:13;;;;;;;15.20;7.50;;;;;;;19.93;70.89;99417.11;273715;1270;22185;-84
2023/09/29 16:45:37;;;;;;;10.60;7.50;;;;;;;19.70;72.15;99416.92;273914;1269;22210;-84
2023/09/29 16:52:20;;;;;;;15.60;8.30;;;;;;;19.39;73.58;99417.48;273785;1269;22362;-83
2023/09/29 16:58:50;;;;;;;18.30;11.50;;;;;;;19.10;75.08;99421.06;273924;1270;22193;-84
2023/09/29 17:05:22;;;;;;;20.10;9.10;;;;;;;18.87;76.61;99419.84;273951;1271;22231;-83
2023/09/29 17:11:45;;;;;;;20.10;11.10;;;;;;;18.68;77.89;99421.39;273859;1269;22198;-84
2023/09/29 17:17:47;;;;;;;19.70;13.20;;;;;;;18.56;78.40;99423.71;273952;1273;22300;-84
2023/09/29 17:24:09;;;;;;;20.20;13.30;;;;;;;18.42;78.83;99422.46;273985;1274;22170;-83
2023/09/29 17:38:19;;;;;;;21.70;12.40;;;;;;;17.85;80.78;99427.29;272127;1285;23329;-84
2023/09/29 17:44:22;;;;;;;27.40;15.30;;;;;;;17.58;82.21;99429.63;272308;1269;22489;-83
2023/09/29 17:50:25;;;;;;;25.40;14.60;;;;;;;17.40;83.10;99432.09;273808;1269;22320;-84
2023/09/29 17:57:18;;;;;;;25.90;13.80;;;;;;;17.27;83.99;99432.76;273786;1269;23346;-84
2023/09/29 18:03:48;;;;;;;30.90;14.90;;;;;;;17.08;84.77;99435.13;274011;1267;22210;-83
2023/09/29 18:09:51;;;;;;;16.80;12.00;;;;;;;16.87;85.52;99438.29;273809;1269;22180;-83
2023/09/29 18:16:34;;;;;;;26.00;12.90;;;;;;;16.70;86.49;99440.61;273883;1270;22221;-83
2023/09/29 18:23:18;;;;;;;25.60;15.10;;;;;;;16.53;87.30;99442.84;273831;1269;22227;-84
2023/09/29 18:30:01;;;;;;;24.00;14.40;;;;;;;16.35;87.75;99444.80;273937;1269;22356;-84
2023/09/29 18:36:43;;;;;;;32.00;18.00;;;;;;;16.12;88.32;99449.65;273472;1269;23743;-84
2023/09/29 18:42:50;;;;;;;45.20;22.60;;;;;;;15.98;89.28;99448.28;273894;1269;22223;-84
2023/09/29 18:48:52;;;;;;;40.30;22.90;;;;;;;15.89;89.83;99445.08;273412;1269;22506;-84
2023/09/29 18:54:57;;;;;;;52.90;27.20;;;;;;;15.72;90.27;99445.60;269677;1269;23444;-84
2023/09/29 19:01:40;;;;;;;42.50;20.50;;;;;;;15.57;90.93;99444.67;270585;1269;25092;-83
2023/09/29 19:08:04;;;;;;;39.50;21.20;;;;;;;15.39;91.58;99447.06;270199;1269;22537;-84
2023/09/29 19:14:26;;;;;;;38.80;21.70;;;;;;;15.25;92.03;99450.52;270634;1269;22560;-84
2023/09/29 19:20:32;;;;;;;43.30;23.50;;;;;;;15.12;92.46;99446.73;270812;1269;22410;-86
2023/09/29 19:26:36;;;;;;;35.00;20.20;;;;;;;15.00;92.93;99448.23;272170;1269;23265;-83
2023/09/29 19:32:39;;;;;;;38.30;21.90;;;;;;;14.84;93.35;99448.61;270909;1269;23538;-84
2023/09/29 19:38:43;;;;;;;36.60;21.70;;;;;;;14.72;93.76;99453.73;272888;1269;23449;-84
2023/09/29 19:44:45;;;;;;;37.00;23.30;;;;;;;14.59;94.04;99451.64;271020;1269;22551;-83
2023/09/29 19:50:48;;;;;;;35.70;23.40;;;;;;;14.49;94.50;99451.85;269997;1269;22738;-84
2023/09/29 19:56:49;;;;;;;35.80;23.40;;;;;;;14.41;95.39;99451.28;271579;1269;22619;-83
2023/09/29 20:03:14;;;;;;;37.10;24.00;;;;;;;14.35;95.69;99445.83;272370;1269;22539;-83
2023/09/29 20:09:23;;;;;;;35.10;22.80;;;;;;;14.26;96.38;99447.13;270404;1269;22540;-83
2023/09/29 20:16:05;;;;;;;32.40;20.70;;;;;;;14.13;96.41;99443.27;273480;1269;22385;-83
2023/09/29 20:22:55;;;;;;;29.90;20.10;;;;;;;13.97;96.69;99443.67;273633;1269;22296;-83
2023/09/29 20:29:25;;;;;;;29.40;20.00;;;;;;;13.86;97.04;99445.29;273891;1269;23891;-83
2023/09/29 20:35:47;;;;;;;26.10;19.20;;;;;;;13.77;97.78;99443.27;273928;1269;22246;-82
2023/09/29 20:41:50;;;;;;;27.30;18.90;;;;;;;13.68;97.98;99440.23;273754;1269;22383;-83
2023/09/29 20:48:33;;;;;;;26.60;17.20;;;;;;;13.55;98.24;99444.33;273565;1264;22430;-83
2023/09/29 21:02:09;;;;;;;23.20;17.20;;;;;;;13.35;99.13;99443.40;272758;1269;22517;-83
2023/09/29 21:08:51;;;;;;;25.90;17.00;;;;;;;13.24;99.29;99443.55;273741;1269;22387;-83
2023/09/29 21:15:17;;;;;;;23.70;15.10;;;;;;;13.12;99.66;99443.92;273613;1269;22392;-83
2023/09/29 21:21:59;;;;;;;27.10;17.50;;;;;;;13.04;99.95;99441.35;273931;1269;23348;-83
2023/09/29 21:29:09;;;;;;;23.00;16.40;;;;;;;12.98;100.00;99442.46;273684;1268;23029;-83
2023/09/29 21:35:52;;;;;;;36.90;21.80;;;;;;;12.88;100.00;99444.64;273200;1268;22416;-83
2023/09/29 21:42:55;;;;;;;33.20;23.40;;;;;;;12.83;100.00;99446.48;273970;1270;22191;-83
2023/09/29 21:49:34;;;;;;;35.10;22.60;;;;;;;12.76;100.00;99448.45;273874;1269;22298;-83
2023/09/29 21:55:36;;;;;;;38.30;24.30;;;;;;;12.64;100.00;99446.45;273131;1272;22299;-83
2023/09/29 22:09:09;;;;;;;34.40;22.60;;;;;;;12.43;100.00;99446.23;272640;1269;22529;-82
2023/09/29 22:15:32;;;;;;;35.70;23.80;;;;;;;12.32;100.00;99441.80;272226;1261;23484;-83
2023/09/29 22:21:34;;;;;;;30.20;22.20;;;;;;;12.23;100.00;99439.19;271487;1269;22381;-82
2023/09/29 22:27:36;;;;;;;33.40;23.40;;;;;;;12.15;100.00;99433.45;270866;1269;23932;-83
2023/09/29 22:33:58;;;;;;;29.10;19.90;;;;;;;12.05;100.00;99432.94;270080;1269;24245;-83
2023/09/29 22:39:59;;;;;;;28.20;18.20;;;;;;;11.97;100.00;99431.03;273804;1268;22864;-83
2023/09/29 22:46:02;;;;;;;28.00;19.00;;;;;;;11.90;100.00;99430.39;273688;1268;22400;-83
2023/09/29 22:52:28;;;;;;;28.60;18.10;;;;;;;11.82;100.00;99430.91;273832;1275;22295;-82
2023/09/29 22:58:52;;;;;;;27.20;18.50;;;;;;;11.75;100.00;99424.25;272644;1269;22568;-82
2023/09/29 23:04:54;;;;;;;23.70;15.60;;;;;;;11.72;100.00;99425.08;270650;1269;25597;-82
2023/09/29 23:10:56;;;;;;;31.60;18.00;;;;;;;11.67;100.00;99424.63;273593;1269;22450;-82
2023/09/29 23:17:12;;;;;;;26.60;18.20;;;;;;;11.63;100.00;99421.48;273236;1269;22610;-81
2023/09/29 23:23:17;;;;;;;26.90;17.70;;;;;;;11.59;100.00;99423.13;273855;1270;23713;-82
2023/09/29 23:29:28;;;;;;;27.60;18.70;;;;;;;11.56;100.00;99419.17;273950;1270;22294;-82
2023/09/29 23:35:54;;;;;;;25.20;15.90;;;;;;;11.56;100.00;99417.45;273793;1269;22187;-82
2023/09/29 23:42:57;;;;;;;24.10;17.90;;;;;;;11.55;100.00;99419.00;273747;1269;22486;-82
2023/09/29 23:49:41;;;;;;;27.20;19.20;;;;;;;11.52;100.00;99421.48;273791;1269;22430;-82
2023/09/29 23:56:32;;;;;;;20.70;14.70;;;;;;;11.52;100.00;99424.05;273791;1269;23192;-82
